createdAt,value
2018-03-02T00:00:25.550Z,41.20
2018-03-02T00:02:55.995Z,41.10
2018-03-02T00:05:30.802Z,41.30
2018-03-02T00:08:12.071Z,41.20
2018-03-02T00:10:51.435Z,41.20
2018-03-02T00:13:25.956Z,41.40
2018-03-02T00:16:05.176Z,41.40
2018-03-02T00:18:35.696Z,41.40
2018-03-02T00:21:08.107Z,41.40
2018-03-02T00:23:37.494Z,41.30
2018-03-02T00:26:11.984Z,41.40
2018-03-02T00:28:46.361Z,41.70
2018-03-02T00:31:16.137Z,42.30
2018-03-02T00:33:46.023Z,41.50
2018-03-02T00:36:15.770Z,41.70
2018-03-02T00:38:45.549Z,41.90
2018-03-02T00:41:17.283Z,41.70
2018-03-02T00:43:46.947Z,41.70
2018-03-02T00:46:17.749Z,41.70
2018-03-02T00:48:50.013Z,41.80
2018-03-02T00:51:25.371Z,41.80
2018-03-02T00:53:55.171Z,41.90
2018-03-02T00:56:25.246Z,41.70
2018-03-02T00:58:55.207Z,41.70
2018-03-02T01:01:26.412Z,42.30
2018-03-02T01:03:56.372Z,42.10
2018-03-02T01:06:37.762Z,42.30
2018-03-02T01:09:11.960Z,42.00
2018-03-02T01:11:42.495Z,41.90
2018-03-02T01:14:12.098Z,41.80
2018-03-02T01:16:42.022Z,41.80
2018-03-02T01:19:11.630Z,41.70
2018-03-02T01:21:41.622Z,41.80
2018-03-02T01:24:12.054Z,41.90
2018-03-02T01:26:41.896Z,41.90
2018-03-02T01:29:11.869Z,42.00
2018-03-02T01:31:41.592Z,41.80
2018-03-02T01:34:18.953Z,42.00
2018-03-02T01:36:48.702Z,42.20
2018-03-02T01:39:18.328Z,42.30
2018-03-02T01:41:47.934Z,42.10
2018-03-02T01:44:17.532Z,42.10
2018-03-02T01:46:49.968Z,42.40
2018-03-02T01:49:21.154Z,42.40
2018-03-02T01:52:08.096Z,42.50
2018-03-02T01:54:49.712Z,42.30
2018-03-02T01:57:20.119Z,42.30
2018-03-02T01:59:52.545Z,42.30
2018-03-02T02:02:24.070Z,42.30
2018-03-02T02:04:53.639Z,42.30
2018-03-02T02:07:24.663Z,42.30
2018-03-02T02:09:55.049Z,42.20
2018-03-02T02:12:28.982Z,42.30
2018-03-02T02:15:01.718Z,42.80
2018-03-02T02:17:36.888Z,42.40
2018-03-02T02:20:10.920Z,42.40
2018-03-02T02:22:41.128Z,42.50
2018-03-02T02:25:17.499Z,42.50
2018-03-02T02:27:47.568Z,42.40
2018-03-02T02:30:17.120Z,42.40
2018-03-02T02:32:46.710Z,42.30
2018-03-02T02:35:16.257Z,42.50
2018-03-02T02:37:45.868Z,42.60
2018-03-02T02:40:16.780Z,42.60
2018-03-02T02:42:46.925Z,42.50
2018-03-02T02:45:16.430Z,42.50
2018-03-02T02:47:46.698Z,42.60
2018-03-02T02:50:16.440Z,42.60
2018-03-02T02:52:46.125Z,42.60
2018-03-02T02:55:16.524Z,43.00
2018-03-02T02:57:46.321Z,42.80
2018-03-02T03:00:17.748Z,42.90
2018-03-02T03:02:47.537Z,42.90
2018-03-02T03:05:17.018Z,42.80
2018-03-02T03:07:47.252Z,42.40
2018-03-02T03:10:17.108Z,42.40
2018-03-02T03:12:46.578Z,42.80
2018-03-02T03:15:16.924Z,42.70
2018-03-02T03:17:46.642Z,42.90
2018-03-02T03:20:16.888Z,42.80
2018-03-02T03:22:46.461Z,42.80
2018-03-02T03:25:16.034Z,42.90
2018-03-02T03:27:46.333Z,43.00
2018-03-02T03:30:15.810Z,42.80
2018-03-02T03:32:46.280Z,43.00
2018-03-02T03:35:15.696Z,42.90
2018-03-02T03:37:45.444Z,43.10
2018-03-02T03:40:17.119Z,42.90
2018-03-02T03:42:47.323Z,42.80
2018-03-02T03:45:17.659Z,43.00
2018-03-02T03:47:47.574Z,43.10
2018-03-02T03:50:17.007Z,43.00
2018-03-02T03:52:47.073Z,43.00
2018-03-02T03:55:16.461Z,43.10
2018-03-02T03:57:46.973Z,43.10
2018-03-02T04:00:16.309Z,43.10
2018-03-02T04:02:46.027Z,43.20
2018-03-02T04:05:15.571Z,43.10
2018-03-02T04:07:45.930Z,43.30
2018-03-02T04:10:15.528Z,43.30
2018-03-02T04:12:44.912Z,43.30
2018-03-02T04:15:14.095Z,43.30
2018-03-02T04:17:43.539Z,43.40
2018-03-02T04:20:12.922Z,43.40
2018-03-02T04:22:43.112Z,43.40
2018-03-02T04:25:12.508Z,43.30
2018-03-02T04:27:41.931Z,43.30
2018-03-02T04:30:20.695Z,43.20
2018-03-02T04:36:32.267Z,43.30
2018-03-02T04:39:01.752Z,43.50
2018-03-02T04:41:31.234Z,43.70
2018-03-02T04:44:01.664Z,44.10
2018-03-02T04:46:31.624Z,43.50
2018-03-02T04:49:01.101Z,43.50
2018-03-02T04:51:30.662Z,43.60
2018-03-02T04:54:01.129Z,43.60
2018-03-02T04:56:31.056Z,43.50
2018-03-02T04:59:01.778Z,43.60
2018-03-02T05:01:31.375Z,43.60
2018-03-02T05:04:00.614Z,43.70
2018-03-02T05:06:29.913Z,43.70
2018-03-02T05:08:59.268Z,44.00
2018-03-02T05:11:28.777Z,43.50
2018-03-02T05:13:58.419Z,43.50
2018-03-02T05:16:28.099Z,43.60
2018-03-02T05:18:59.222Z,43.80
2018-03-02T05:21:28.949Z,43.90
2018-03-02T05:23:58.451Z,44.00
2018-03-02T05:26:27.920Z,43.80
2018-03-02T05:28:57.523Z,44.00
2018-03-02T05:31:35.890Z,44.20
2018-03-02T05:34:05.780Z,44.10
2018-03-02T05:36:35.554Z,43.90
2018-03-02T05:39:24.970Z,43.80
2018-03-02T05:41:54.531Z,44.10
2018-03-02T05:44:24.469Z,44.10
2018-03-02T05:46:54.471Z,44.50
2018-03-02T05:49:24.691Z,44.50
2018-03-02T05:51:54.413Z,44.30
2018-03-02T05:54:24.348Z,44.50
2018-03-02T05:56:54.980Z,44.70
2018-03-02T05:59:25.420Z,44.70
2018-03-02T06:01:55.763Z,44.90
2018-03-02T06:04:25.589Z,45.10
2018-03-02T06:06:55.214Z,45.00
2018-03-02T06:09:25.203Z,45.00
2018-03-02T06:11:54.833Z,45.00
2018-03-02T06:14:25.305Z,44.80
2018-03-02T06:16:55.026Z,44.90
2018-03-02T06:19:28.893Z,45.10
2018-03-02T06:21:58.988Z,45.00
2018-03-02T06:24:29.744Z,44.80
2018-03-02T06:27:00.924Z,44.90
2018-03-02T06:29:30.837Z,44.90
2018-03-02T06:32:00.706Z,44.90
2018-03-02T06:34:31.472Z,45.10
2018-03-02T06:37:07.620Z,45.00
2018-03-02T06:39:48.285Z,44.90
2018-03-02T06:42:23.468Z,45.20
2018-03-02T06:44:55.120Z,45.10
2018-03-02T06:47:24.621Z,45.30
2018-03-02T06:49:54.291Z,45.20
2018-03-02T06:52:24.594Z,45.40
2018-03-02T06:54:54.840Z,45.00
2018-03-02T06:57:24.688Z,45.00
2018-03-02T06:59:55.710Z,45.00
2018-03-02T07:02:26.119Z,45.00
2018-03-02T07:04:56.000Z,45.00
2018-03-02T07:07:29.069Z,45.00
2018-03-02T07:10:00.248Z,44.90
2018-03-02T07:12:30.064Z,44.60
2018-03-02T07:15:02.626Z,44.70
2018-03-02T07:17:32.727Z,44.70
2018-03-02T07:20:04.469Z,44.90
2018-03-02T07:22:34.496Z,45.00
2018-03-02T07:25:07.292Z,45.10
2018-03-02T07:27:40.530Z,44.90
2018-03-02T07:30:11.065Z,45.00
2018-03-02T07:32:40.612Z,45.00
2018-03-02T07:35:10.638Z,44.60
2018-03-02T07:37:41.955Z,44.10
2018-03-02T07:40:11.600Z,44.10
2018-03-02T07:42:41.991Z,44.00
2018-03-02T07:45:11.589Z,44.00
2018-03-02T07:47:42.455Z,44.20
2018-03-02T07:50:13.206Z,43.70
2018-03-02T07:52:42.925Z,43.70
2018-03-02T07:55:12.355Z,43.60
2018-03-02T07:57:51.208Z,43.60
2018-03-02T08:00:30.746Z,43.40
2018-03-02T08:03:03.120Z,43.40
2018-03-02T08:05:33.384Z,43.40
2018-03-02T08:08:03.915Z,43.60
2018-03-02T08:10:35.165Z,43.10
2018-03-02T08:13:06.131Z,43.10
2018-03-02T08:15:38.823Z,43.30
2018-03-02T08:18:25.425Z,43.40
2018-03-02T08:20:59.666Z,42.60
2018-03-02T08:23:33.020Z,42.60
2018-03-02T08:26:09.238Z,42.70
2018-03-02T08:28:45.606Z,42.70
2018-03-02T08:31:17.427Z,42.70
2018-03-02T08:33:48.397Z,42.60
2018-03-02T08:36:20.660Z,42.70
2018-03-02T08:38:51.455Z,42.70
2018-03-02T08:41:28.539Z,42.60
2018-03-02T08:43:59.786Z,42.40
2018-03-02T08:46:31.634Z,42.20
2018-03-02T08:49:02.993Z,42.30
2018-03-02T08:51:36.690Z,42.40
2018-03-02T08:54:09.216Z,42.30
2018-03-02T08:56:39.284Z,42.30
2018-03-02T08:59:12.796Z,42.20
2018-03-02T09:01:43.203Z,41.80
2018-03-02T09:04:16.690Z,41.80
2018-03-02T09:06:48.574Z,41.70
2018-03-02T09:09:21.275Z,41.60
2018-03-02T09:11:57.415Z,41.60
2018-03-02T09:14:27.751Z,41.60
2018-03-02T09:17:01.157Z,41.40
2018-03-02T09:19:35.010Z,41.30
2018-03-02T09:22:10.605Z,41.30
2018-03-02T09:24:43.752Z,40.90
2018-03-02T09:27:14.936Z,40.50
2018-03-02T09:29:46.814Z,40.20
2018-03-02T09:32:21.430Z,40.30
2018-03-02T09:34:55.657Z,40.50
2018-03-02T09:41:45.227Z,40.20
2018-03-02T09:44:16.580Z,39.80
2018-03-02T09:46:55.623Z,40.10
2018-03-02T09:49:27.175Z,40.10
2018-03-02T09:52:06.390Z,40.00
2018-03-02T09:54:41.427Z,39.60
2018-03-02T09:57:12.524Z,39.00
2018-03-02T09:59:44.971Z,39.00
2018-03-02T10:02:17.567Z,38.90
2018-03-02T10:04:47.798Z,39.10
2018-03-02T10:07:19.605Z,38.70
2018-03-02T10:09:50.646Z,39.00
2018-03-02T10:12:22.556Z,39.00
2018-03-02T10:14:54.123Z,39.00
2018-03-02T10:17:25.612Z,38.50
2018-03-02T10:19:56.771Z,38.50
2018-03-02T10:22:29.827Z,38.50
2018-03-02T10:25:03.764Z,38.30
2018-03-02T10:27:39.831Z,38.60
2018-03-02T10:30:11.056Z,38.60
2018-03-02T10:32:41.808Z,38.20
2018-03-02T10:35:14.499Z,37.90
2018-03-02T10:37:47.012Z,37.90
2018-03-02T10:40:17.166Z,37.50
2018-03-02T10:42:47.345Z,37.40
2018-03-02T10:45:26.493Z,37.40
2018-03-02T10:47:59.301Z,37.20
2018-03-02T10:50:30.696Z,37.50
2018-03-02T10:53:02.712Z,37.60
2018-03-02T10:55:36.992Z,37.60
2018-03-02T10:58:09.116Z,37.50
2018-03-02T11:03:39.545Z,37.00
2018-03-02T11:06:13.377Z,36.50
2018-03-02T11:08:45.487Z,36.40
2018-03-02T11:11:22.284Z,36.40
2018-03-02T11:14:01.971Z,36.70
2018-03-02T11:16:37.565Z,36.90
2018-03-02T11:19:09.201Z,36.60
2018-03-02T11:21:41.292Z,36.60
2018-03-02T11:24:21.425Z,36.70
2018-03-02T11:27:00.591Z,36.30
2018-03-02T11:29:32.959Z,36.60
2018-03-02T11:32:05.410Z,36.20
2018-03-02T11:35:00.371Z,36.00
2018-03-02T11:37:42.538Z,35.90
2018-03-02T11:40:13.879Z,36.00
2018-03-02T11:46:39.451Z,35.30
2018-03-02T11:49:12.529Z,34.70
2018-03-02T11:51:42.894Z,34.60
2018-03-02T11:54:14.403Z,33.80
2018-03-02T11:56:45.193Z,33.80
2018-03-02T11:59:16.627Z,34.00
2018-03-02T12:01:57.320Z,34.40
2018-03-02T12:04:40.861Z,34.40
2018-03-02T12:11:29.811Z,33.90
2018-03-02T12:14:01.788Z,33.80
2018-03-02T12:16:35.233Z,33.40
2018-03-02T12:19:14.653Z,33.70
2018-03-02T12:21:46.354Z,34.30
2018-03-02T12:24:22.651Z,34.10
2018-03-02T12:27:03.459Z,34.10
2018-03-02T12:29:41.484Z,34.30
2018-03-02T12:32:23.366Z,34.20
2018-03-02T12:34:56.194Z,34.20
2018-03-02T12:37:32.950Z,33.80
2018-03-02T12:40:12.111Z,33.70
2018-03-02T12:42:43.635Z,33.80
2018-03-02T12:45:15.916Z,33.80
2018-03-02T12:47:49.747Z,34.00
2018-03-02T12:50:22.035Z,33.60
2018-03-02T12:52:53.413Z,33.30
2018-03-02T12:55:45.438Z,32.50
2018-03-02T12:58:21.192Z,33.10
2018-03-02T13:00:59.030Z,32.10
2018-03-02T13:03:34.916Z,31.90
2018-03-02T13:06:09.763Z,32.40
2018-03-02T13:08:42.945Z,32.50
2018-03-02T13:11:18.875Z,32.70
2018-03-02T13:14:12.775Z,32.50
2018-03-02T13:16:46.400Z,32.80
2018-03-02T13:19:26.688Z,33.00
2018-03-02T13:21:57.906Z,33.50
2018-03-02T13:24:38.601Z,33.30
2018-03-02T13:30:38.279Z,33.00
2018-03-02T13:33:19.220Z,33.40
2018-03-02T13:35:59.681Z,33.30
2018-03-02T13:38:31.700Z,33.70
2018-03-02T13:41:18.664Z,34.20
2018-03-02T13:43:51.853Z,33.90
2018-03-02T13:46:22.908Z,34.10
2018-03-02T13:54:21.679Z,34.60
2018-03-02T13:57:10.767Z,34.60
2018-03-02T13:59:56.444Z,34.30
2018-03-02T14:02:36.820Z,34.10
2018-03-02T14:05:14.685Z,33.70
2018-03-02T14:10:48.863Z,34.20
2018-03-02T14:13:24.090Z,34.40
2018-03-02T14:15:54.980Z,34.70
2018-03-02T14:18:26.757Z,35.50
2018-03-02T14:21:01.426Z,34.90
2018-03-02T14:23:34.399Z,34.70
2018-03-02T14:26:06.097Z,34.40
2018-03-02T14:28:38.321Z,34.60
2018-03-02T14:31:10.583Z,34.30
2018-03-02T14:33:40.807Z,34.70
2018-03-02T14:36:15.667Z,34.70
2018-03-02T14:38:47.184Z,34.90
2018-03-02T14:41:21.122Z,35.20
2018-03-02T14:44:38.398Z,35.10
2018-03-02T14:47:38.804Z,35.10
2018-03-02T14:50:12.372Z,35.00
2018-03-02T14:52:44.917Z,35.00
2018-03-02T14:55:15.696Z,35.10
2018-03-02T14:57:47.741Z,35.20
2018-03-02T15:00:18.347Z,35.40
2018-03-02T15:02:49.073Z,35.20
2018-03-02T15:05:22.186Z,35.20
2018-03-02T15:07:52.566Z,35.40
2018-03-02T15:10:30.851Z,35.40
2018-03-02T15:13:07.976Z,35.40
2018-03-02T15:15:40.190Z,35.60
2018-03-02T15:18:11.612Z,35.80
2018-03-02T15:20:42.942Z,35.80
2018-03-02T15:23:12.560Z,35.60
2018-03-02T15:25:43.350Z,35.70
2018-03-02T15:28:14.714Z,35.90
2018-03-02T15:30:56.229Z,35.80
2018-03-02T15:33:27.739Z,35.80
2018-03-02T15:39:03.574Z,35.80
2018-03-02T15:41:35.262Z,35.90
2018-03-02T15:44:08.614Z,35.90
2018-03-02T15:46:53.363Z,35.80
2018-03-02T15:49:26.048Z,35.80
2018-03-02T15:51:57.190Z,36.20
2018-03-02T15:54:30.815Z,36.20
2018-03-02T15:57:12.411Z,36.10
2018-03-02T15:59:45.787Z,36.20
2018-03-02T16:02:19.579Z,36.20
2018-03-02T16:04:52.385Z,36.40
2018-03-02T16:07:25.238Z,36.60
2018-03-02T16:09:57.244Z,36.90
2018-03-02T16:12:36.642Z,36.90
2018-03-02T16:15:09.896Z,36.90
2018-03-02T16:21:12.821Z,36.70
2018-03-02T16:23:46.327Z,36.90
2018-03-02T16:26:16.297Z,37.30
2018-03-02T16:28:48.250Z,37.30
2018-03-02T16:31:18.848Z,37.30
2018-03-02T16:33:49.894Z,37.30
2018-03-02T16:36:23.894Z,37.40
2018-03-02T16:38:53.842Z,37.60
2018-03-02T16:41:29.232Z,37.70
2018-03-02T16:44:05.907Z,37.40
2018-03-02T16:46:37.300Z,37.60
2018-03-02T16:49:11.434Z,38.20
2018-03-02T16:51:45.925Z,37.50
2018-03-02T16:54:19.187Z,38.10
2018-03-02T16:56:51.152Z,38.30
2018-03-02T16:59:22.607Z,38.20
2018-03-02T17:01:54.434Z,38.40
2018-03-02T17:04:30.579Z,38.50
2018-03-02T17:07:14.738Z,38.40
2018-03-02T17:10:00.056Z,38.40
2018-03-02T17:12:47.059Z,39.20
2018-03-02T17:15:19.647Z,38.30
2018-03-02T17:17:51.138Z,38.30
2018-03-02T17:20:26.320Z,38.30
2018-03-02T17:23:19.447Z,38.40
2018-03-02T17:26:08.091Z,38.40
2018-03-02T17:28:43.049Z,38.60
2018-03-02T17:31:15.831Z,39.00
2018-03-02T17:33:48.308Z,38.70
2018-03-02T17:36:21.250Z,38.70
2018-03-02T17:38:57.937Z,38.60
2018-03-02T17:41:31.505Z,38.60
2018-03-02T17:44:09.271Z,38.50
2018-03-02T17:46:41.965Z,38.40
2018-03-02T17:49:15.627Z,38.40
2018-03-02T17:52:00.539Z,38.20
2018-03-02T17:54:41.713Z,38.10
2018-03-02T17:57:29.872Z,37.90
2018-03-02T18:00:10.608Z,37.80
2018-03-02T18:02:42.116Z,37.70
2018-03-02T18:05:14.820Z,37.40
2018-03-02T18:08:00.393Z,37.70
2018-03-02T18:10:44.677Z,38.10
2018-03-02T18:16:40.660Z,39.60
2018-03-02T18:20:23.780Z,40.60
2018-03-02T18:22:56.312Z,41.90
2018-03-02T18:29:19.822Z,43.50
2018-03-02T18:32:02.826Z,44.60
2018-03-02T18:35:04.749Z,46.80
2018-03-02T18:37:41.153Z,48.30
2018-03-02T18:40:16.628Z,49.10
2018-03-02T18:46:39.438Z,51.70
2018-03-02T18:49:15.351Z,54.00
2018-03-02T18:52:18.572Z,56.50
2018-03-02T18:57:45.100Z,58.60
2018-03-02T19:08:41.702Z,61.70
2018-03-02T19:11:20.794Z,64.10
2018-03-02T19:14:01.206Z,64.20
2018-03-02T19:19:20.406Z,69.10
2018-03-02T19:25:04.361Z,71.10
2018-03-02T19:27:39.616Z,74.20
2018-03-02T19:30:16.287Z,74.20
2018-03-02T19:33:22.431Z,75.50
2018-03-02T19:36:02.843Z,77.50
2018-03-02T19:38:40.731Z,77.60
2018-03-02T19:41:34.600Z,78.80
2018-03-02T19:44:11.448Z,80.30
2018-03-02T19:46:43.896Z,81.80
2018-03-02T19:49:35.994Z,81.80
2018-03-02T19:52:16.207Z,82.80
2018-03-02T19:55:00.478Z,83.80
2018-03-02T19:57:40.277Z,84.60
2018-03-02T20:00:22.697Z,85.20
2018-03-02T20:05:53.590Z,87.10
2018-03-02T20:08:37.734Z,87.10
2018-03-02T20:11:29.472Z,87.80
2018-03-02T20:17:18.872Z,85.80
2018-03-02T20:30:47.809Z,86.30
2018-03-02T20:33:47.215Z,86.60
2018-03-02T20:36:22.717Z,87.80
2018-03-02T20:39:02.784Z,88.40
2018-03-02T20:41:43.517Z,88.30
2018-03-02T20:44:18.778Z,88.00
2018-03-02T20:48:18.029Z,88.30
2018-03-02T20:51:00.219Z,88.40
2018-03-02T20:56:15.312Z,88.40
2018-03-02T20:58:57.883Z,88.90
2018-03-02T21:01:39.819Z,89.60
2018-03-02T21:04:21.108Z,89.90
2018-03-02T21:07:03.030Z,90.00
2018-03-02T21:09:36.190Z,90.10
2018-03-02T21:12:10.100Z,89.60
2018-03-02T21:17:55.292Z,90.40
2018-03-02T21:20:40.757Z,90.70
2018-03-02T21:23:15.882Z,91.00
2018-03-02T21:25:49.174Z,91.30
2018-03-02T21:28:23.633Z,91.60
2018-03-02T21:31:04.494Z,91.70
2018-03-02T21:33:39.288Z,92.10
2018-03-02T21:36:14.656Z,92.20
2018-03-02T21:39:16.649Z,92.60
2018-03-02T21:42:15.364Z,92.60
2018-03-02T21:44:59.850Z,92.80
2018-03-02T21:47:34.258Z,92.80
2018-03-02T21:50:17.566Z,92.80
2018-03-02T21:52:50.385Z,93.10
2018-03-02T21:55:33.428Z,92.90
2018-03-02T21:58:49.330Z,93.10
2018-03-02T22:08:47.882Z,92.70
2018-03-02T22:11:20.445Z,92.90
2018-03-02T22:13:51.221Z,92.90
2018-03-02T22:16:35.639Z,92.80
2018-03-02T22:19:26.718Z,92.60
2018-03-02T22:21:59.897Z,92.60
2018-03-02T22:24:51.637Z,92.80
2018-03-02T22:27:45.211Z,92.40
2018-03-02T22:30:44.179Z,92.30
2018-03-02T22:33:22.757Z,92.30
2018-03-02T22:35:58.920Z,91.90
2018-03-02T22:38:35.093Z,92.40
2018-03-02T22:41:08.077Z,92.20
2018-03-02T22:43:43.613Z,92.10
2018-03-02T22:46:19.014Z,92.10
2018-03-02T22:52:10.035Z,92.40
2018-03-02T22:54:45.831Z,92.20
2018-03-02T22:57:35.975Z,92.00
2018-03-02T23:00:45.778Z,92.30
2018-03-02T23:03:31.160Z,92.30
2018-03-02T23:06:06.886Z,92.60
2018-03-02T23:08:49.808Z,92.70
2018-03-02T23:11:28.795Z,92.70
2018-03-02T23:14:10.508Z,92.50
2018-03-02T23:17:05.210Z,93.10
2018-03-02T23:19:41.280Z,93.10
2018-03-02T23:25:09.372Z,93.80
2018-03-02T23:28:02.058Z,93.90
2018-03-02T23:30:39.803Z,93.90
2018-03-02T23:33:16.114Z,93.90
2018-03-02T23:36:11.353Z,93.90
2018-03-02T23:38:59.730Z,94.00
2018-03-02T23:41:54.753Z,94.00
2018-03-02T23:44:46.183Z,94.00
2018-03-02T23:47:34.400Z,94.00
2018-03-02T23:50:07.059Z,94.10
2018-03-02T23:52:39.563Z,94.20
2018-03-02T23:55:23.964Z,94.20
2018-03-02T23:58:00.836Z,94.40
